Aviator — V7NU9 — position and weather

sailwx.info

Track history (hours):
 
Tides and Currents Weather Stations Pressure Air Temp Water Temp Dewpoint Dewpoint Depression Visibility Wind Speed Wind Dir Waves Ship Positions

Aviator

Last reported at 2018-Apr-14 16:47 UTC. Time now 2018-Apr-23 23:24 UTC.
Position N 01°15' E 104°03'.
Warning: this ship's position is 9 days out of date.

Length 140 m; draft 9 m.

Type: Ship. MMSI: 538003023.

Date/timePositionNaut miles runAvg speedWind from/ knotsBaromVisibWave heightAir tempDewpointWater temp
2018-Apr-14 16:47N 01°15' E 104°03'412.2
2018-Apr-14 16:29N 01°15' E 103°59'612.0
2018-Apr-14 15:59N 01°13' E 103°54'511.4
2018-Apr-14 15:30N 01°10' E 103°49'510.8
2018-Apr-14 15:00N 01°06' E 103°45'611.2
2018-Apr-14 14:30N 01°03' E 103°40'611.6
2018-Apr-14 13:59N 01°05' E 103°34'611.8
2018-Apr-14 13:30N 01°08' E 103°30'912.6
2018-Apr-14 12:48N 01°13' E 103°23'412.6
2018-Apr-14 12:29N 01°15' E 103°19'712.5
2018-Apr-14 11:57N 01°20' E 103°14'  
Track history (hours):
 
Tides and Currents Weather Stations Pressure Air Temp Water Temp Dewpoint Dewpoint Depression Visibility Wind Speed Wind Dir Waves Ship Positions

Aviator

Last reported at 2018-Apr-14 16:47 UTC. Time now 2018-Apr-23 23:24 UTC.
Position N 01°15' E 104°03'.
Warning: this ship's position is 9 days out of date.

Length 140 m; draft 9 m.

Type: Ship. MMSI: 538003023.

Date/timePositionNaut miles runAvg speedWind from/ knotsBaromVisibWave heightAir tempDewpointWater temp
2018-Apr-14 16:47N 01°15' E 104°03'412.2
2018-Apr-14 16:29N 01°15' E 103°59'612.0
2018-Apr-14 15:59N 01°13' E 103°54'511.4
2018-Apr-14 15:30N 01°10' E 103°49'510.8
2018-Apr-14 15:00N 01°06' E 103°45'611.2
2018-Apr-14 14:30N 01°03' E 103°40'611.6
2018-Apr-14 13:59N 01°05' E 103°34'611.8
2018-Apr-14 13:30N 01°08' E 103°30'912.6
2018-Apr-14 12:48N 01°13' E 103°23'412.6
2018-Apr-14 12:29N 01°15' E 103°19'712.5
2018-Apr-14 11:57N 01°20' E 103°14'  

Dump ship's entire track history